This is the latest recevied weather packets stored in our database for station/object KD4KKF. If no packets are shown the sender has not sent any weather packets the latest 10 day(s).
| Time | Temp. | Humidity | Pressure | Rain* | Wind** | Luminosity | Snow |
|---|---|---|---|---|---|---|---|
| 1777136706 | 25.56° C | 73% | 1008.9 hPa | 0 mm | - | 299 W/m² | - |
| 1777136404 | 24.44° C | 75% | 1009.1 hPa | 0 mm | - | 799 W/m² | - |
| 1777136101 | 23.33° C | 78% | 1009 hPa | 0 mm | - | 741 W/m² | - |
| 1777135797 | 23.89° C | 80% | 1009 hPa | 0 mm | - | 275 W/m² | - |
| 1777135494 | 24.44° C | 76% | 1009.1 hPa | 0 mm | - | 563 W/m² | - |
| 1777135190 | 23.89° C | 78% | 1009.1 hPa | 0 mm | - | 513 W/m² | - |
| 1777134887 | 25° C | 75% | 1009 hPa | 0 mm | - | 449 W/m² | - |
| 1777134584 | 23.89° C | 76% | 1009.2 hPa | 0 mm | - | 861 W/m² | - |
| 1777134280 | 23.89° C | 78% | 1009.1 hPa | 0 mm | - | 251 W/m² | - |
| 1777133977 | 23.33° C | 80% | 1009.2 hPa | 0 mm | - | 312 W/m² | - |
| 1777133673 | 23.33° C | 83% | 1008.8 hPa | 0 mm | - | 921 W/m² | - |
| 1777133372 | 23.33° C | 80% | 1009.2 hPa | 0 mm | - | 363 W/m² | - |
| 1777133067 | 23.33° C | 82% | 1009 hPa | 0 mm | - | 314 W/m² | - |
| 1777132763 | 23.33° C | 81% | 1009.1 hPa | 0 mm | - | 265 W/m² | - |
| 1777132460 | 23.33° C | 80% | 1009.3 hPa | 0 mm | - | 260 W/m² | - |
| 1777132156 | 23.33° C | 79% | 1009.2 hPa | 0 mm | - | 287 W/m² | - |
| 1777131852 | 23.89° C | 77% | 1009.1 hPa | 0 mm | - | 334 W/m² | - |
| 1777131550 | 23.89° C | 77% | 1009.2 hPa | 0 mm | - | 475 W/m² | - |
| 1777131244 | 23.33° C | 80% | 1009.1 hPa | 0 mm | - | 467 W/m² | - |
| 1777130939 | 22.78° C | 80% | 1009 hPa | 0 mm | - | 356 W/m² | - |
| 1777130635 | 22.78° C | 81% | 1008.9 hPa | 0 mm | - | 363 W/m² | - |
| 1777130332 | 23.33° C | 79% | 1008.9 hPa | 0 mm | - | 327 W/m² | - |
| 1777130028 | 23.33° C | 80% | 1008.9 hPa | 0 mm | - | 370 W/m² | - |
| 1777129723 | 22.78° C | 82% | 1008.8 hPa | 0 mm | - | 377 W/m² | - |
| 1777129418 | 23.89° C | 81% | 1008.7 hPa | 0 mm | - | 332 W/m² | - |
* Rain latest hour (hover to see other rain measurements)
** Current wind speed in m/s (hover to see current wind gust speed)